Jupiter, FL

12:16 AM EDT on May 06, 2015 (GMT -0400)
Palm Beach International | | Change Station
CLOSE
Current Station
Airport
Location: West Palm Beach,
Elevation: 20 ft
Nearby Weather Stations

Elev 20 ft 26.68 °N, 80.10 °W | Updated 5 minutes ago

Rain
Rain
71 °F
Feels Like 71 °F
N
16
Wind Variable Wind from NE
Gusts 20 mph

Today
High -- | Low -- °F
--% Chance of Precip.
Yesterday
High -- | Low -- °F
Precip. -- in
6:38 AM 7:56 PM
Waning Gibbous, 96% visible
Pressure 30.07 in
Visibility 2.0 miles
Clouds Scattered Clouds 800 ft
Mostly Cloudy 1400 ft
Overcast 3700 ft
Dew Point 68 °F
Humidity 90%
Rainfall 0.00 in
Snow Depth Not available.
UV 0 out of 12
Pollen .60 out of 12
Air Quality Not available.
Flu Activity Local Activity
SPECI KPBI 060411Z 05014G17KT 2SM RA BR SCT008 BKN014 OVC037 22/20 A3007 RMK AO2 P0002 T02170200 $

More Conditions Fewer Conditions

Pressure 30.07 in
Visibility 2.0 miles
Clouds Scattered Clouds 800 ft
Mostly Cloudy 1400 ft
Overcast 3700 ft
Dew Point 68 °F
Humidity 90%
Rainfall 0.00 in
Snow Depth Not available.
UV 0 out of 12
Pollen .60 out of 12
Air Quality Not available.
Flu Activity Local Activity
SPECI KPBI 060411Z 05014G17KT 2SM RA BR SCT008 BKN014 OVC037 22/20 A3007 RMK AO2 P0002 T02170200 $

More Conditions Fewer Conditions

Nowcast | as of 11:00 PM EDT on May 5, 2015

Through 1 am isolated to scattered showers will be impacting mainly portions of coastal and Metro Broward and Palm Beach counties as they move in from the east and northeast off the Atlantic waters. Main concerns with the activity will be brief periods of heavy rain and gusty winds in excess of 25 mph.

×

10-Day Weather Forecast

Almanac

Astronomy

May. 06, 2015 Rise Set
Actual Time
Civil Twilight
Nautical Twilight
Astronomical Twilight
Moon
Length of Visible Light
Length of Day
Tomorrow will be .
, % of the Moon is Illuminated

Today's Extremes

State Highs State Lows

Community

WunderPhotos

Upload Photos

1,819,021 photos uploaded!

WunderBlogs® & News

Nearby

Air Quality

  Air Quality AQ Index Pollutant
Not available.

Snow Depth

Station Depth Elevation

Earthquake Activity

City Distance Mag. Time & Date
Minimum magnitude displayed is 2.5.

Coastal Water Temperatures

Place Temperature

Stations

Nearby Weather Stations

Station Location Temp. Windchill Dew Point Humidity Wind Precip. Elev Updated Type